sensor_id;sensor_type;location;lat;lon;timestamp;P1;durP1;ratioP1;P2;durP2;ratioP2
57989;SDS011;58373;51.824;5.564;2022-10-16T00:01:14;8.18;;;3.47;;
57989;SDS011;58373;51.824;5.564;2022-10-16T00:03:40;6.85;;;3.28;;
57989;SDS011;58373;51.824;5.564;2022-10-16T00:06:07;6.57;;;3.38;;
57989;SDS011;58373;51.824;5.564;2022-10-16T00:08:33;7.90;;;3.92;;
57989;SDS011;58373;51.824;5.564;2022-10-16T00:11:03;7.03;;;4.10;;
57989;SDS011;58373;51.824;5.564;2022-10-16T00:13:28;9.05;;;3.63;;
57989;SDS011;58373;51.824;5.564;2022-10-16T00:15:55;8.35;;;3.78;;
57989;SDS011;58373;51.824;5.564;2022-10-16T00:18:21;8.18;;;3.70;;
57989;SDS011;58373;51.824;5.564;2022-10-16T00:20:47;6.00;;;3.38;;
57989;SDS011;58373;51.824;5.564;2022-10-16T00:23:12;8.35;;;3.67;;
57989;SDS011;58373;51.824;5.564;2022-10-16T00:25:37;7.78;;;3.53;;
57989;SDS011;58373;51.824;5.564;2022-10-16T00:28:03;9.27;;;4.45;;
57989;SDS011;58373;51.824;5.564;2022-10-16T00:30:28;6.80;;;4.18;;
57989;SDS011;58373;51.824;5.564;2022-10-16T00:32:54;9.73;;;4.07;;
57989;SDS011;58373;51.824;5.564;2022-10-16T00:35:21;7.68;;;3.80;;
57989;SDS011;58373;51.824;5.564;2022-10-16T00:37:46;8.77;;;4.13;;
57989;SDS011;58373;51.824;5.564;2022-10-16T00:40:11;8.95;;;3.90;;
57989;SDS011;58373;51.824;5.564;2022-10-16T00:42:37;8.55;;;4.25;;
57989;SDS011;58373;51.824;5.564;2022-10-16T00:45:03;7.57;;;4.13;;
57989;SDS011;58373;51.824;5.564;2022-10-16T00:47:30;7.68;;;4.38;;
57989;SDS011;58373;51.824;5.564;2022-10-16T00:50:44;7.80;;;4.15;;
57989;SDS011;58373;51.824;5.564;2022-10-16T00:52:56;8.98;;;3.85;;
57989;SDS011;58373;51.824;5.564;2022-10-16T00:55:24;9.50;;;4.18;;
57989;SDS011;58373;51.824;5.564;2022-10-16T00:57:50;8.75;;;4.50;;
57989;SDS011;58373;51.824;5.564;2022-10-16T01:00:19;8.18;;;3.70;;
57989;SDS011;58373;51.824;5.564;2022-10-16T01:02:57;7.28;;;3.67;;
57989;SDS011;58373;51.824;5.564;2022-10-16T01:05:33;6.57;;;3.13;;
57989;SDS011;58373;51.824;5.564;2022-10-16T01:08:10;4.47;;;3.05;;
57989;SDS011;58373;51.824;5.564;2022-10-16T01:10:57;6.63;;;3.50;;
57989;SDS011;58373;51.824;5.564;2022-10-16T01:13:38;7.22;;;2.95;;
57989;SDS011;58373;51.824;5.564;2022-10-16T01:19:09;4.93;;;2.88;;
57989;SDS011;58373;51.824;5.564;2022-10-16T01:21:42;5.20;;;2.67;;
57989;SDS011;58373;51.824;5.564;2022-10-16T01:27:15;8.27;;;3.13;;
57989;SDS011;58373;51.824;5.564;2022-10-16T01:32:39;4.43;;;2.80;;
57989;SDS011;58373;51.824;5.564;2022-10-16T01:35:24;5.40;;;3.13;;
57989;SDS011;58373;51.824;5.564;2022-10-16T01:38:19;8.27;;;3.28;;
57989;SDS011;58373;51.824;5.564;2022-10-16T01:40:52;4.38;;;2.67;;
57989;SDS011;58373;51.824;5.564;2022-10-16T01:43:32;5.15;;;2.88;;
57989;SDS011;58373;51.824;5.564;2022-10-16T01:46:01;6.07;;;2.90;;
57989;SDS011;58373;51.824;5.564;2022-10-16T01:48:26;5.97;;;3.13;;
57989;SDS011;58373;51.824;5.564;2022-10-16T01:50:59;5.80;;;3.40;;
57989;SDS011;58373;51.824;5.564;2022-10-16T01:53:28;6.60;;;2.75;;
57989;SDS011;58373;51.824;5.564;2022-10-16T01:55:55;5.95;;;2.97;;
57989;SDS011;58373;51.824;5.564;2022-10-16T01:58:24;6.05;;;3.40;;
57989;SDS011;58373;51.824;5.564;2022-10-16T02:00:50;6.50;;;2.97;;
57989;SDS011;58373;51.824;5.564;2022-10-16T02:05:46;6.18;;;2.25;;
57989;SDS011;58373;51.824;5.564;2022-10-16T02:08:16;5.10;;;2.97;;
57989;SDS011;58373;51.824;5.564;2022-10-16T02:10:41;5.78;;;2.78;;
57989;SDS011;58373;51.824;5.564;2022-10-16T02:13:16;6.03;;;2.92;;
57989;SDS011;58373;51.824;5.564;2022-10-16T02:15:45;4.90;;;2.77;;
57989;SDS011;58373;51.824;5.564;2022-10-16T02:18:10;5.88;;;2.50;;
57989;SDS011;58373;51.824;5.564;2022-10-16T02:20:50;5.28;;;2.92;;
57989;SDS011;58373;51.824;5.564;2022-10-16T02:23:24;8.25;;;2.78;;
57989;SDS011;58373;51.824;5.564;2022-10-16T02:26:13;4.60;;;2.60;;
57989;SDS011;58373;51.824;5.564;2022-10-16T02:28:45;5.47;;;2.60;;
57989;SDS011;58373;51.824;5.564;2022-10-16T02:31:18;5.13;;;2.50;;
57989;SDS011;58373;51.824;5.564;2022-10-16T02:33:51;5.22;;;2.53;;
57989;SDS011;58373;51.824;5.564;2022-10-16T02:36:19;5.03;;;2.67;;
57989;SDS011;58373;51.824;5.564;2022-10-16T02:38:46;6.53;;;2.65;;
57989;SDS011;58373;51.824;5.564;2022-10-16T02:41:11;3.72;;;2.38;;
57989;SDS011;58373;51.824;5.564;2022-10-16T02:43:37;5.13;;;2.70;;
57989;SDS011;58373;51.824;5.564;2022-10-16T02:46:02;7.22;;;2.95;;
57989;SDS011;58373;51.824;5.564;2022-10-16T02:48:28;5.53;;;2.60;;
57989;SDS011;58373;51.824;5.564;2022-10-16T02:50:53;5.10;;;2.53;;
57989;SDS011;58373;51.824;5.564;2022-10-16T02:53:18;5.13;;;2.53;;
57989;SDS011;58373;51.824;5.564;2022-10-16T02:55:44;5.85;;;2.53;;
57989;SDS011;58373;51.824;5.564;2022-10-16T02:58:09;4.65;;;2.38;;
57989;SDS011;58373;51.824;5.564;2022-10-16T03:00:34;4.60;;;2.15;;
57989;SDS011;58373;51.824;5.564;2022-10-16T03:03:00;4.47;;;2.20;;
57989;SDS011;58373;51.824;5.564;2022-10-16T03:05:25;5.05;;;2.30;;
57989;SDS011;58373;51.824;5.564;2022-10-16T03:07:51;6.05;;;2.42;;
57989;SDS011;58373;51.824;5.564;2022-10-16T03:10:17;4.38;;;2.10;;
57989;SDS011;58373;51.824;5.564;2022-10-16T03:12:43;3.78;;;2.08;;
57989;SDS011;58373;51.824;5.564;2022-10-16T03:15:08;3.25;;;2.00;;
57989;SDS011;58373;51.824;5.564;2022-10-16T03:17:34;4.40;;;2.17;;
57989;SDS011;58373;51.824;5.564;2022-10-16T03:19:59;4.47;;;2.47;;
57989;SDS011;58373;51.824;5.564;2022-10-16T03:22:24;5.32;;;2.40;;
57989;SDS011;58373;51.824;5.564;2022-10-16T03:24:50;3.97;;;2.05;;
57989;SDS011;58373;51.824;5.564;2022-10-16T03:27:15;3.90;;;1.92;;
57989;SDS011;58373;51.824;5.564;2022-10-16T03:29:40;4.53;;;2.33;;
57989;SDS011;58373;51.824;5.564;2022-10-16T03:32:06;4.55;;;2.28;;
57989;SDS011;58373;51.824;5.564;2022-10-16T03:34:31;5.97;;;2.15;;
57989;SDS011;58373;51.824;5.564;2022-10-16T03:36:56;4.43;;;2.05;;
57989;SDS011;58373;51.824;5.564;2022-10-16T03:39:22;5.50;;;2.72;;
57989;SDS011;58373;51.824;5.564;2022-10-16T03:41:47;3.65;;;2.33;;
57989;SDS011;58373;51.824;5.564;2022-10-16T03:44:13;4.28;;;2.42;;
57989;SDS011;58373;51.824;5.564;2022-10-16T03:46:38;4.60;;;2.17;;
57989;SDS011;58373;51.824;5.564;2022-10-16T03:49:04;5.70;;;2.30;;
57989;SDS011;58373;51.824;5.564;2022-10-16T03:51:29;4.78;;;2.13;;
57989;SDS011;58373;51.824;5.564;2022-10-16T03:53:55;4.55;;;2.20;;
57989;SDS011;58373;51.824;5.564;2022-10-16T03:56:20;5.25;;;2.20;;
57989;SDS011;58373;51.824;5.564;2022-10-16T03:58:46;7.35;;;2.72;;
57989;SDS011;58373;51.824;5.564;2022-10-16T04:01:11;4.75;;;2.20;;
57989;SDS011;58373;51.824;5.564;2022-10-16T04:03:36;6.93;;;2.40;;
57989;SDS011;58373;51.824;5.564;2022-10-16T04:06:02;3.05;;;2.22;;
57989;SDS011;58373;51.824;5.564;2022-10-16T04:08:27;4.82;;;2.28;;
57989;SDS011;58373;51.824;5.564;2022-10-16T04:10:53;5.22;;;2.17;;
57989;SDS011;58373;51.824;5.564;2022-10-16T04:13:18;4.93;;;2.33;;
57989;SDS011;58373;51.824;5.564;2022-10-16T04:15:44;4.38;;;2.10;;
57989;SDS011;58373;51.824;5.564;2022-10-16T04:18:10;4.80;;;2.08;;
57989;SDS011;58373;51.824;5.564;2022-10-16T04:20:36;4.53;;;2.15;;
57989;SDS011;58373;51.824;5.564;2022-10-16T04:23:01;4.68;;;2.05;;
57989;SDS011;58373;51.824;5.564;2022-10-16T04:25:26;7.60;;;2.40;;
57989;SDS011;58373;51.824;5.564;2022-10-16T04:27:52;3.83;;;2.22;;
57989;SDS011;58373;51.824;5.564;2022-10-16T04:30:18;5.95;;;2.00;;
57989;SDS011;58373;51.824;5.564;2022-10-16T04:32:47;3.25;;;1.83;;
57989;SDS011;58373;51.824;5.564;2022-10-16T04:35:17;6.05;;;2.22;;
57989;SDS011;58373;51.824;5.564;2022-10-16T04:37:43;5.32;;;2.03;;
57989;SDS011;58373;51.824;5.564;2022-10-16T04:40:08;5.18;;;2.22;;
57989;SDS011;58373;51.824;5.564;2022-10-16T04:42:33;5.18;;;2.10;;
57989;SDS011;58373;51.824;5.564;2022-10-16T04:44:59;4.47;;;1.92;;
57989;SDS011;58373;51.824;5.564;2022-10-16T04:47:24;4.00;;;1.90;;
57989;SDS011;58373;51.824;5.564;2022-10-16T04:49:50;6.68;;;2.17;;
57989;SDS011;58373;51.824;5.564;2022-10-16T04:52:15;4.30;;;2.22;;
57989;SDS011;58373;51.824;5.564;2022-10-16T04:54:41;5.95;;;2.03;;
57989;SDS011;58373;51.824;5.564;2022-10-16T04:57:06;4.75;;;2.13;;
57989;SDS011;58373;51.824;5.564;2022-10-16T04:59:31;5.22;;;1.95;;
57989;SDS011;58373;51.824;5.564;2022-10-16T05:01:57;4.75;;;2.15;;
57989;SDS011;58373;51.824;5.564;2022-10-16T05:04:22;3.95;;;2.00;;
57989;SDS011;58373;51.824;5.564;2022-10-16T05:06:48;4.20;;;2.10;;
57989;SDS011;58373;51.824;5.564;2022-10-16T05:09:13;6.40;;;2.33;;
57989;SDS011;58373;51.824;5.564;2022-10-16T05:11:38;4.85;;;2.20;;
57989;SDS011;58373;51.824;5.564;2022-10-16T05:14:04;4.20;;;1.80;;
57989;SDS011;58373;51.824;5.564;2022-10-16T05:16:29;4.22;;;1.85;;
57989;SDS011;58373;51.824;5.564;2022-10-16T05:18:55;3.67;;;1.75;;
57989;SDS011;58373;51.824;5.564;2022-10-16T05:21:21;4.22;;;2.22;;
57989;SDS011;58373;51.824;5.564;2022-10-16T05:23:47;5.75;;;1.88;;
57989;SDS011;58373;51.824;5.564;2022-10-16T05:26:12;5.53;;;2.10;;
57989;SDS011;58373;51.824;5.564;2022-10-16T05:28:38;5.03;;;2.33;;
57989;SDS011;58373;51.824;5.564;2022-10-16T05:31:06;4.20;;;1.90;;
57989;SDS011;58373;51.824;5.564;2022-10-16T05:33:32;4.57;;;1.95;;
57989;SDS011;58373;51.824;5.564;2022-10-16T05:36:02;3.53;;;1.75;;
57989;SDS011;58373;51.824;5.564;2022-10-16T05:38:28;4.45;;;2.05;;
57989;SDS011;58373;51.824;5.564;2022-10-16T05:40:53;3.55;;;1.60;;
57989;SDS011;58373;51.824;5.564;2022-10-16T05:43:19;4.50;;;1.90;;
57989;SDS011;58373;51.824;5.564;2022-10-16T05:45:52;3.28;;;1.70;;
57989;SDS011;58373;51.824;5.564;2022-10-16T05:48:22;4.75;;;1.90;;
57989;SDS011;58373;51.824;5.564;2022-10-16T05:50:48;4.97;;;1.95;;
57989;SDS011;58373;51.824;5.564;2022-10-16T05:53:13;2.65;;;1.73;;
57989;SDS011;58373;51.824;5.564;2022-10-16T05:55:39;4.00;;;2.00;;
57989;SDS011;58373;51.824;5.564;2022-10-16T05:58:04;2.95;;;1.85;;
57989;SDS011;58373;51.824;5.564;2022-10-16T06:00:29;2.63;;;1.70;;
57989;SDS011;58373;51.824;5.564;2022-10-16T06:02:55;7.60;;;2.20;;
57989;SDS011;58373;51.824;5.564;2022-10-16T06:05:20;5.47;;;2.38;;
57989;SDS011;58373;51.824;5.564;2022-10-16T06:07:45;4.55;;;2.00;;
57989;SDS011;58373;51.824;5.564;2022-10-16T06:10:11;5.82;;;2.40;;
57989;SDS011;58373;51.824;5.564;2022-10-16T06:12:36;6.32;;;2.17;;
57989;SDS011;58373;51.824;5.564;2022-10-16T06:15:01;5.60;;;2.30;;
57989;SDS011;58373;51.824;5.564;2022-10-16T06:17:27;3.88;;;2.00;;
57989;SDS011;58373;51.824;5.564;2022-10-16T06:19:52;5.40;;;2.22;;
57989;SDS011;58373;51.824;5.564;2022-10-16T06:22:17;6.97;;;2.17;;
57989;SDS011;58373;51.824;5.564;2022-10-16T06:24:43;6.35;;;2.03;;
57989;SDS011;58373;51.824;5.564;2022-10-16T06:27:08;3.90;;;1.98;;
57989;SDS011;58373;51.824;5.564;2022-10-16T06:29:33;4.18;;;2.15;;
57989;SDS011;58373;51.824;5.564;2022-10-16T06:31:59;3.47;;;2.00;;
57989;SDS011;58373;51.824;5.564;2022-10-16T06:34:24;5.78;;;2.00;;
57989;SDS011;58373;51.824;5.564;2022-10-16T06:36:50;6.80;;;2.17;;
57989;SDS011;58373;51.824;5.564;2022-10-16T06:39:15;4.95;;;2.00;;
57989;SDS011;58373;51.824;5.564;2022-10-16T06:41:40;4.00;;;2.03;;
57989;SDS011;58373;51.824;5.564;2022-10-16T06:44:06;4.63;;;2.20;;
57989;SDS011;58373;51.824;5.564;2022-10-16T06:46:32;4.40;;;2.33;;
57989;SDS011;58373;51.824;5.564;2022-10-16T06:48:58;3.50;;;2.13;;
57989;SDS011;58373;51.824;5.564;2022-10-16T06:51:24;5.47;;;2.50;;
57989;SDS011;58373;51.824;5.564;2022-10-16T06:53:51;7.93;;;2.38;;
57989;SDS011;58373;51.824;5.564;2022-10-16T06:56:22;6.22;;;2.60;;
57989;SDS011;58373;51.824;5.564;2022-10-16T06:58:49;4.13;;;2.53;;
57989;SDS011;58373;51.824;5.564;2022-10-16T07:01:15;4.65;;;2.20;;
57989;SDS011;58373;51.824;5.564;2022-10-16T07:03:42;3.95;;;1.90;;
57989;SDS011;58373;51.824;5.564;2022-10-16T07:06:10;5.32;;;2.50;;
57989;SDS011;58373;51.824;5.564;2022-10-16T07:08:37;6.65;;;2.80;;
57989;SDS011;58373;51.824;5.564;2022-10-16T07:11:05;5.43;;;2.15;;
57989;SDS011;58373;51.824;5.564;2022-10-16T07:13:35;4.63;;;2.00;;
57989;SDS011;58373;51.824;5.564;2022-10-16T07:16:11;4.45;;;2.03;;
57989;SDS011;58373;51.824;5.564;2022-10-16T07:18:38;4.40;;;2.13;;
57989;SDS011;58373;51.824;5.564;2022-10-16T07:23:31;4.85;;;2.08;;
57989;SDS011;58373;51.824;5.564;2022-10-16T07:25:56;4.85;;;2.47;;
57989;SDS011;58373;51.824;5.564;2022-10-16T07:28:22;5.38;;;2.40;;
57989;SDS011;58373;51.824;5.564;2022-10-16T07:30:47;3.50;;;2.47;;
57989;SDS011;58373;51.824;5.564;2022-10-16T07:33:13;5.45;;;2.17;;
57989;SDS011;58373;51.824;5.564;2022-10-16T07:35:47;4.22;;;2.00;;
57989;SDS011;58373;51.824;5.564;2022-10-16T07:38:20;4.10;;;2.28;;
57989;SDS011;58373;51.824;5.564;2022-10-16T07:40:45;5.15;;;2.58;;
57989;SDS011;58373;51.824;5.564;2022-10-16T07:43:11;5.22;;;2.88;;
57989;SDS011;58373;51.824;5.564;2022-10-16T07:45:37;4.32;;;2.60;;
57989;SDS011;58373;51.824;5.564;2022-10-16T07:48:03;4.50;;;2.35;;
57989;SDS011;58373;51.824;5.564;2022-10-16T07:50:28;7.15;;;2.63;;
57989;SDS011;58373;51.824;5.564;2022-10-16T07:52:54;4.03;;;2.05;;
57989;SDS011;58373;51.824;5.564;2022-10-16T07:55:19;5.90;;;2.70;;
57989;SDS011;58373;51.824;5.564;2022-10-16T07:57:44;6.45;;;2.40;;
57989;SDS011;58373;51.824;5.564;2022-10-16T08:00:10;5.60;;;2.90;;
57989;SDS011;58373;51.824;5.564;2022-10-16T08:02:38;5.45;;;2.50;;
57989;SDS011;58373;51.824;5.564;2022-10-16T08:05:04;5.88;;;2.60;;
57989;SDS011;58373;51.824;5.564;2022-10-16T08:07:30;4.25;;;2.70;;
57989;SDS011;58373;51.824;5.564;2022-10-16T08:09:56;6.00;;;2.45;;
57989;SDS011;58373;51.824;5.564;2022-10-16T08:12:23;4.57;;;2.38;;
57989;SDS011;58373;51.824;5.564;2022-10-16T08:14:48;4.90;;;2.90;;
57989;SDS011;58373;51.824;5.564;2022-10-16T08:17:14;5.22;;;2.70;;
57989;SDS011;58373;51.824;5.564;2022-10-16T08:19:43;8.25;;;2.88;;
57989;SDS011;58373;51.824;5.564;2022-10-16T08:22:09;5.93;;;2.67;;
57989;SDS011;58373;51.824;5.564;2022-10-16T08:24:34;5.38;;;2.45;;
57989;SDS011;58373;51.824;5.564;2022-10-16T08:27:01;7.13;;;2.67;;
57989;SDS011;58373;51.824;5.564;2022-10-16T08:29:27;5.78;;;2.42;;
57989;SDS011;58373;51.824;5.564;2022-10-16T08:31:53;5.30;;;2.42;;
57989;SDS011;58373;51.824;5.564;2022-10-16T08:34:18;5.13;;;2.25;;
57989;SDS011;58373;51.824;5.564;2022-10-16T08:36:44;4.95;;;2.97;;
57989;SDS011;58373;51.824;5.564;2022-10-16T08:39:09;4.90;;;2.28;;
57989;SDS011;58373;51.824;5.564;2022-10-16T08:52:31;5.55;;;2.33;;
57989;SDS011;58373;51.824;5.564;2022-10-16T08:55:00;5.07;;;2.60;;
57989;SDS011;58373;51.824;5.564;2022-10-16T08:57:26;5.40;;;2.47;;
57989;SDS011;58373;51.824;5.564;2022-10-16T08:59:52;7.13;;;2.65;;
57989;SDS011;58373;51.824;5.564;2022-10-16T09:02:32;5.95;;;2.20;;
57989;SDS011;58373;51.824;5.564;2022-10-16T09:05:07;6.85;;;2.80;;
57989;SDS011;58373;51.824;5.564;2022-10-16T09:18:44;7.80;;;2.83;;
57989;SDS011;58373;51.824;5.564;2022-10-16T09:24:00;7.00;;;2.97;;
57989;SDS011;58373;51.824;5.564;2022-10-16T09:26:36;6.90;;;2.95;;
57989;SDS011;58373;51.824;5.564;2022-10-16T09:29:02;7.30;;;2.30;;
57989;SDS011;58373;51.824;5.564;2022-10-16T09:31:28;7.32;;;2.67;;
57989;SDS011;58373;51.824;5.564;2022-10-16T09:33:55;9.95;;;2.95;;
57989;SDS011;58373;51.824;5.564;2022-10-16T09:36:25;7.90;;;3.15;;
57989;SDS011;58373;51.824;5.564;2022-10-16T09:39:06;9.55;;;3.30;;
57989;SDS011;58373;51.824;5.564;2022-10-16T09:41:36;8.88;;;2.47;;
57989;SDS011;58373;51.824;5.564;2022-10-16T09:44:05;10.88;;;2.88;;
57989;SDS011;58373;51.824;5.564;2022-10-16T09:46:41;8.35;;;2.70;;
57989;SDS011;58373;51.824;5.564;2022-10-16T09:49:20;9.10;;;2.63;;
57989;SDS011;58373;51.824;5.564;2022-10-16T09:51:48;10.35;;;2.60;;
57989;SDS011;58373;51.824;5.564;2022-10-16T09:54:16;10.52;;;2.80;;
57989;SDS011;58373;51.824;5.564;2022-10-16T09:56:45;7.32;;;2.40;;
57989;SDS011;58373;51.824;5.564;2022-10-16T10:01:41;10.63;;;2.38;;
57989;SDS011;58373;51.824;5.564;2022-10-16T10:04:10;10.23;;;3.05;;
57989;SDS011;58373;51.824;5.564;2022-10-16T10:06:37;11.73;;;3.03;;
57989;SDS011;58373;51.824;5.564;2022-10-16T10:09:21;10.88;;;2.67;;
57989;SDS011;58373;51.824;5.564;2022-10-16T10:14:23;10.70;;;2.45;;
57989;SDS011;58373;51.824;5.564;2022-10-16T10:16:49;13.52;;;2.60;;
57989;SDS011;58373;51.824;5.564;2022-10-16T10:19:16;12.32;;;3.28;;
57989;SDS011;58373;51.824;5.564;2022-10-16T10:24:12;11.07;;;2.80;;
57989;SDS011;58373;51.824;5.564;2022-10-16T10:26:39;12.32;;;3.03;;
57989;SDS011;58373;51.824;5.564;2022-10-16T10:31:53;10.40;;;2.58;;
57989;SDS011;58373;51.824;5.564;2022-10-16T10:37:22;10.10;;;2.33;;
57989;SDS011;58373;51.824;5.564;2022-10-16T10:40:05;12.60;;;2.75;;
57989;SDS011;58373;51.824;5.564;2022-10-16T10:42:50;10.88;;;2.50;;
57989;SDS011;58373;51.824;5.564;2022-10-16T10:45:26;9.80;;;2.53;;
57989;SDS011;58373;51.824;5.564;2022-10-16T11:06:21;10.88;;;2.35;;
57989;SDS011;58373;51.824;5.564;2022-10-16T11:09:02;9.07;;;2.22;;
57989;SDS011;58373;51.824;5.564;2022-10-16T11:11:40;9.35;;;2.25;;
57989;SDS011;58373;51.824;5.564;2022-10-16T11:14:20;9.40;;;2.20;;
57989;SDS011;58373;51.824;5.564;2022-10-16T11:17:00;9.85;;;2.75;;
57989;SDS011;58373;51.824;5.564;2022-10-16T11:22:16;12.07;;;2.83;;
57989;SDS011;58373;51.824;5.564;2022-10-16T11:24:55;9.05;;;2.10;;
57989;SDS011;58373;51.824;5.564;2022-10-16T11:27:36;11.25;;;2.50;;
57989;SDS011;58373;51.824;5.564;2022-10-16T11:30:08;10.00;;;2.50;;
57989;SDS011;58373;51.824;5.564;2022-10-16T11:35:43;9.32;;;2.13;;
57989;SDS011;58373;51.824;5.564;2022-10-16T11:41:32;10.32;;;2.10;;
57989;SDS011;58373;51.824;5.564;2022-10-16T11:44:08;10.82;;;2.45;;
57989;SDS011;58373;51.824;5.564;2022-10-16T11:46:46;12.80;;;2.95;;
57989;SDS011;58373;51.824;5.564;2022-10-16T11:49:18;10.38;;;2.40;;
57989;SDS011;58373;51.824;5.564;2022-10-16T11:51:52;8.52;;;2.20;;
57989;SDS011;58373;51.824;5.564;2022-10-16T11:54:28;9.27;;;2.17;;
57989;SDS011;58373;51.824;5.564;2022-10-16T12:00:09;11.77;;;2.60;;
57989;SDS011;58373;51.824;5.564;2022-10-16T12:05:18;10.80;;;2.53;;
57989;SDS011;58373;51.824;5.564;2022-10-16T12:07:50;9.02;;;2.10;;
57989;SDS011;58373;51.824;5.564;2022-10-16T12:10:26;9.32;;;2.05;;
57989;SDS011;58373;51.824;5.564;2022-10-16T12:12:56;11.30;;;2.22;;
57989;SDS011;58373;51.824;5.564;2022-10-16T12:15:24;10.90;;;2.65;;
57989;SDS011;58373;51.824;5.564;2022-10-16T12:17:54;12.73;;;2.72;;
57989;SDS011;58373;51.824;5.564;2022-10-16T12:20:21;11.38;;;2.58;;
57989;SDS011;58373;51.824;5.564;2022-10-16T12:22:56;8.80;;;2.30;;
57989;SDS011;58373;51.824;5.564;2022-10-16T12:25:26;10.32;;;2.10;;
57989;SDS011;58373;51.824;5.564;2022-10-16T12:28:00;10.82;;;2.45;;
57989;SDS011;58373;51.824;5.564;2022-10-16T12:30:42;11.73;;;2.53;;
57989;SDS011;58373;51.824;5.564;2022-10-16T12:35:45;15.63;;;2.90;;
57989;SDS011;58373;51.824;5.564;2022-10-16T12:38:21;9.65;;;2.53;;
57989;SDS011;58373;51.824;5.564;2022-10-16T12:40:55;11.07;;;2.97;;
57989;SDS011;58373;51.824;5.564;2022-10-16T12:46:03;10.65;;;2.42;;
57989;SDS011;58373;51.824;5.564;2022-10-16T12:48:45;10.15;;;2.63;;
57989;SDS011;58373;51.824;5.564;2022-10-16T12:54:11;11.45;;;2.05;;
57989;SDS011;58373;51.824;5.564;2022-10-16T13:00:02;10.45;;;2.35;;
57989;SDS011;58373;51.824;5.564;2022-10-16T13:14:15;9.52;;;2.58;;
57989;SDS011;58373;51.824;5.564;2022-10-16T13:28:22;8.95;;;2.38;;
57989;SDS011;58373;51.824;5.564;2022-10-16T13:30:54;9.52;;;2.10;;
57989;SDS011;58373;51.824;5.564;2022-10-16T13:35:55;10.68;;;2.50;;
57989;SDS011;58373;51.824;5.564;2022-10-16T13:38:28;9.50;;;2.22;;
57989;SDS011;58373;51.824;5.564;2022-10-16T13:41:12;9.57;;;2.20;;
57989;SDS011;58373;51.824;5.564;2022-10-16T13:43:42;9.73;;;2.35;;
57989;SDS011;58373;51.824;5.564;2022-10-16T13:46:14;10.52;;;2.75;;
57989;SDS011;58373;51.824;5.564;2022-10-16T13:48:41;9.68;;;2.53;;
57989;SDS011;58373;51.824;5.564;2022-10-16T13:51:17;9.73;;;2.30;;
57989;SDS011;58373;51.824;5.564;2022-10-16T13:53:44;10.15;;;2.95;;
57989;SDS011;58373;51.824;5.564;2022-10-16T13:56:13;8.07;;;2.47;;
57989;SDS011;58373;51.824;5.564;2022-10-16T13:58:44;11.73;;;2.67;;
57989;SDS011;58373;51.824;5.564;2022-10-16T14:03:49;12.95;;;2.75;;
57989;SDS011;58373;51.824;5.564;2022-10-16T14:06:17;10.52;;;2.47;;
57989;SDS011;58373;51.824;5.564;2022-10-16T14:08:48;8.65;;;2.58;;
57989;SDS011;58373;51.824;5.564;2022-10-16T14:11:22;9.48;;;2.30;;
57989;SDS011;58373;51.824;5.564;2022-10-16T14:13:49;9.25;;;2.30;;
57989;SDS011;58373;51.824;5.564;2022-10-16T14:16:49;10.50;;;2.25;;
57989;SDS011;58373;51.824;5.564;2022-10-16T14:19:15;9.52;;;2.28;;
57989;SDS011;58373;51.824;5.564;2022-10-16T14:21:45;9.07;;;2.10;;
57989;SDS011;58373;51.824;5.564;2022-10-16T14:24:11;9.13;;;2.20;;
57989;SDS011;58373;51.824;5.564;2022-10-16T14:26:43;10.10;;;2.45;;
57989;SDS011;58373;51.824;5.564;2022-10-16T14:29:14;10.57;;;2.15;;
57989;SDS011;58373;51.824;5.564;2022-10-16T14:31:42;10.88;;;2.47;;
57989;SDS011;58373;51.824;5.564;2022-10-16T14:34:24;12.07;;;2.33;;
57989;SDS011;58373;51.824;5.564;2022-10-16T14:36:52;8.35;;;2.22;;
57989;SDS011;58373;51.824;5.564;2022-10-16T14:39:22;10.15;;;2.50;;
57989;SDS011;58373;51.824;5.564;2022-10-16T14:41:51;9.45;;;2.05;;
57989;SDS011;58373;51.824;5.564;2022-10-16T14:44:17;7.80;;;2.00;;
57989;SDS011;58373;51.824;5.564;2022-10-16T14:46:44;15.93;;;7.97;;
57989;SDS011;58373;51.824;5.564;2022-10-16T14:51:36;12.90;;;4.10;;
57989;SDS011;58373;51.824;5.564;2022-10-16T14:54:09;10.88;;;4.00;;
57989;SDS011;58373;51.824;5.564;2022-10-16T14:56:44;10.50;;;3.40;;
57989;SDS011;58373;51.824;5.564;2022-10-16T14:59:18;8.93;;;2.35;;
57989;SDS011;58373;51.824;5.564;2022-10-16T15:01:47;9.80;;;3.20;;
57989;SDS011;58373;51.824;5.564;2022-10-16T15:04:13;11.00;;;3.42;;
57989;SDS011;58373;51.824;5.564;2022-10-16T15:06:41;12.43;;;3.00;;
57989;SDS011;58373;51.824;5.564;2022-10-16T15:09:07;12.50;;;4.03;;
57989;SDS011;58373;51.824;5.564;2022-10-16T15:11:32;49.03;;;21.38;;
57989;SDS011;58373;51.824;5.564;2022-10-16T15:13:58;33.15;;;15.05;;
57989;SDS011;58373;51.824;5.564;2022-10-16T15:16:24;21.88;;;9.05;;
57989;SDS011;58373;51.824;5.564;2022-10-16T15:18:49;26.02;;;10.13;;
57989;SDS011;58373;51.824;5.564;2022-10-16T15:21:20;25.63;;;8.55;;
57989;SDS011;58373;51.824;5.564;2022-10-16T15:23:49;10.43;;;3.55;;
57989;SDS011;58373;51.824;5.564;2022-10-16T15:26:15;12.00;;;4.90;;
57989;SDS011;58373;51.824;5.564;2022-10-16T15:28:41;9.68;;;2.42;;
57989;SDS011;58373;51.824;5.564;2022-10-16T15:31:06;8.73;;;2.53;;
57989;SDS011;58373;51.824;5.564;2022-10-16T15:33:31;59.30;;;19.15;;
57989;SDS011;58373;51.824;5.564;2022-10-16T15:35:59;18.17;;;4.93;;
57989;SDS011;58373;51.824;5.564;2022-10-16T15:38:25;11.00;;;2.55;;
57989;SDS011;58373;51.824;5.564;2022-10-16T15:40:52;13.05;;;3.70;;
57989;SDS011;58373;51.824;5.564;2022-10-16T15:43:17;12.73;;;4.60;;
57989;SDS011;58373;51.824;5.564;2022-10-16T15:45:43;9.15;;;2.72;;
57989;SDS011;58373;51.824;5.564;2022-10-16T15:48:10;9.05;;;3.00;;
57989;SDS011;58373;51.824;5.564;2022-10-16T15:50:37;8.45;;;2.67;;
57989;SDS011;58373;51.824;5.564;2022-10-16T15:53:03;7.63;;;2.80;;
57989;SDS011;58373;51.824;5.564;2022-10-16T15:55:28;12.05;;;4.25;;
57989;SDS011;58373;51.824;5.564;2022-10-16T15:57:54;13.00;;;5.22;;
57989;SDS011;58373;51.824;5.564;2022-10-16T16:00:20;11.77;;;5.75;;
57989;SDS011;58373;51.824;5.564;2022-10-16T16:02:50;14.50;;;10.45;;
57989;SDS011;58373;51.824;5.564;2022-10-16T16:05:19;15.32;;;10.38;;
57989;SDS011;58373;51.824;5.564;2022-10-16T16:07:46;13.40;;;8.35;;
57989;SDS011;58373;51.824;5.564;2022-10-16T16:10:12;12.20;;;5.50;;
57989;SDS011;58373;51.824;5.564;2022-10-16T16:12:37;12.15;;;5.00;;
57989;SDS011;58373;51.824;5.564;2022-10-16T16:15:04;12.63;;;4.90;;
57989;SDS011;58373;51.824;5.564;2022-10-16T16:17:31;10.35;;;5.40;;
57989;SDS011;58373;51.824;5.564;2022-10-16T16:19:57;12.63;;;8.02;;
57989;SDS011;58373;51.824;5.564;2022-10-16T16:22:22;13.68;;;7.93;;
57989;SDS011;58373;51.824;5.564;2022-10-16T16:24:48;10.70;;;4.35;;
57989;SDS011;58373;51.824;5.564;2022-10-16T16:27:13;10.23;;;3.20;;
57989;SDS011;58373;51.824;5.564;2022-10-16T16:29:38;9.32;;;3.30;;
57989;SDS011;58373;51.824;5.564;2022-10-16T16:32:04;12.10;;;3.95;;
57989;SDS011;58373;51.824;5.564;2022-10-16T16:34:30;11.70;;;4.25;;
57989;SDS011;58373;51.824;5.564;2022-10-16T16:36:55;9.55;;;4.05;;
57989;SDS011;58373;51.824;5.564;2022-10-16T16:39:21;10.75;;;4.30;;
57989;SDS011;58373;51.824;5.564;2022-10-16T16:41:47;23.92;;;16.95;;
57989;SDS011;58373;51.824;5.564;2022-10-16T16:44:13;28.27;;;20.25;;
57989;SDS011;58373;51.824;5.564;2022-10-16T16:46:40;18.17;;;12.60;;
57989;SDS011;58373;51.824;5.564;2022-10-16T16:49:08;14.23;;;8.07;;
57989;SDS011;58373;51.824;5.564;2022-10-16T16:51:37;9.93;;;4.80;;
57989;SDS011;58373;51.824;5.564;2022-10-16T16:54:03;11.52;;;4.10;;
57989;SDS011;58373;51.824;5.564;2022-10-16T16:56:29;10.10;;;3.90;;
57989;SDS011;58373;51.824;5.564;2022-10-16T16:58:55;8.48;;;2.80;;